createdAt,value
2022-12-31T00:00:40.352Z,0.00
2022-12-31T00:01:40.313Z,0.00
2022-12-31T00:02:40.404Z,0.00
2022-12-31T00:03:40.411Z,0.00
2022-12-31T00:04:40.297Z,0.00
2022-12-31T00:05:40.299Z,0.00
2022-12-31T00:06:40.291Z,0.00
2022-12-31T00:08:01.294Z,0.00
2022-12-31T00:08:40.285Z,0.00
2022-12-31T00:09:40.270Z,0.00
2022-12-31T00:10:40.266Z,0.00
2022-12-31T00:11:40.277Z,0.00
2022-12-31T00:12:40.263Z,0.00
2022-12-31T00:13:40.240Z,0.00
2022-12-31T00:14:40.255Z,0.00
2022-12-31T00:15:40.243Z,0.00
2022-12-31T00:16:40.260Z,0.00
2022-12-31T00:17:40.225Z,0.00
2022-12-31T00:18:40.238Z,0.00
2022-12-31T00:19:40.279Z,0.00
2022-12-31T00:20:40.230Z,0.00
2022-12-31T00:21:40.220Z,0.00
2022-12-31T00:22:40.204Z,0.00
2022-12-31T00:23:40.199Z,0.00
2022-12-31T00:24:40.209Z,0.00
2022-12-31T00:25:40.187Z,0.00
2022-12-31T00:26:40.186Z,0.00
2022-12-31T00:27:40.178Z,0.00
2022-12-31T00:28:40.173Z,0.00
2022-12-31T00:29:40.170Z,0.00
2022-12-31T00:30:40.233Z,0.00
2022-12-31T00:31:40.178Z,0.00
2022-12-31T00:32:40.148Z,0.00
2022-12-31T00:33:40.146Z,0.00
2022-12-31T00:34:40.149Z,0.00
2022-12-31T00:35:40.148Z,0.00
2022-12-31T00:36:40.132Z,0.00
2022-12-31T00:37:40.142Z,0.00
2022-12-31T00:38:40.126Z,0.00
2022-12-31T00:39:40.118Z,0.00
2022-12-31T00:40:40.112Z,0.00
2022-12-31T00:41:40.114Z,0.00
2022-12-31T00:42:40.112Z,0.00
2022-12-31T00:43:40.110Z,0.00
2022-12-31T00:44:40.095Z,0.00
2022-12-31T00:45:40.093Z,0.00
2022-12-31T00:47:01.085Z,0.00
2022-12-31T00:47:40.072Z,0.00
2022-12-31T00:48:40.077Z,0.00
2022-12-31T00:49:40.073Z,0.00
2022-12-31T00:50:40.063Z,0.00
2022-12-31T00:51:40.064Z,0.00
2022-12-31T00:52:40.061Z,0.00
2022-12-31T00:53:40.041Z,0.00
2022-12-31T00:54:40.074Z,0.00
2022-12-31T00:55:40.036Z,0.00
2022-12-31T00:56:40.038Z,0.00
2022-12-31T00:57:40.050Z,0.00
2022-12-31T00:58:40.016Z,0.00
2022-12-31T00:59:40.016Z,0.00
2022-12-31T01:00:40.015Z,0.00
2022-12-31T01:01:40.090Z,0.00
2022-12-31T01:02:40.211Z,0.00
2022-12-31T01:03:40.015Z,0.00
2022-12-31T01:04:39.994Z,0.00
2022-12-31T01:05:40.011Z,0.00
2022-12-31T01:06:40.002Z,0.00
2022-12-31T01:07:39.975Z,0.00
2022-12-31T01:08:39.979Z,0.00
2022-12-31T01:09:39.963Z,0.00
2022-12-31T01:10:39.964Z,0.00
2022-12-31T01:11:39.958Z,0.00
2022-12-31T01:12:39.955Z,0.00
2022-12-31T01:13:39.945Z,0.00
2022-12-31T01:14:39.940Z,0.00
2022-12-31T01:15:39.992Z,0.00
2022-12-31T01:16:39.934Z,0.00
2022-12-31T01:17:39.928Z,0.00
2022-12-31T01:18:39.922Z,0.00
2022-12-31T01:19:39.926Z,0.00
2022-12-31T01:20:39.910Z,0.00
2022-12-31T01:21:39.901Z,0.00
2022-12-31T01:22:39.896Z,0.00
2022-12-31T01:23:39.901Z,0.00
2022-12-31T01:24:39.887Z,0.00
2022-12-31T01:25:39.887Z,0.00
2022-12-31T01:26:39.882Z,0.00
2022-12-31T01:27:39.884Z,0.00
2022-12-31T01:28:39.872Z,0.00
2022-12-31T01:29:39.860Z,0.00
2022-12-31T01:30:39.948Z,0.00
2022-12-31T01:31:39.859Z,0.00
2022-12-31T01:32:39.846Z,0.00
2022-12-31T01:33:39.854Z,0.00
2022-12-31T01:34:39.877Z,0.00
2022-12-31T01:35:39.832Z,0.00
2022-12-31T01:36:39.835Z,0.00
2022-12-31T01:37:39.828Z,0.00
2022-12-31T01:38:39.811Z,0.00
2022-12-31T01:39:39.846Z,0.00
2022-12-31T01:40:39.810Z,0.00
2022-12-31T01:41:39.818Z,0.00
2022-12-31T01:42:39.811Z,0.00
2022-12-31T01:43:39.791Z,0.00
2022-12-31T01:44:39.794Z,0.00
2022-12-31T01:45:39.783Z,0.00
2022-12-31T01:46:39.841Z,0.00
2022-12-31T01:47:39.792Z,0.00
2022-12-31T01:48:39.770Z,0.00
2022-12-31T01:49:39.764Z,0.00
2022-12-31T01:50:39.762Z,0.00
2022-12-31T01:51:39.755Z,0.00
2022-12-31T01:52:39.751Z,0.00
2022-12-31T01:53:40.980Z,0.00
2022-12-31T01:54:39.743Z,0.00
2022-12-31T01:55:39.737Z,0.00
2022-12-31T01:56:39.727Z,0.00
2022-12-31T01:57:39.725Z,0.00
2022-12-31T01:58:39.720Z,0.00
2022-12-31T01:59:39.713Z,0.00
2022-12-31T02:00:39.714Z,0.00
2022-12-31T02:01:39.780Z,0.00
2022-12-31T02:02:39.787Z,0.00
2022-12-31T02:03:39.685Z,0.00
2022-12-31T02:04:39.686Z,0.00
2022-12-31T02:05:39.675Z,0.00
2022-12-31T02:06:39.693Z,0.00
2022-12-31T02:07:40.315Z,0.00
2022-12-31T02:08:42.138Z,0.00
2022-12-31T02:09:39.665Z,0.00
2022-12-31T02:10:39.655Z,0.00
2022-12-31T02:11:39.653Z,0.00
2022-12-31T02:12:39.654Z,0.00
2022-12-31T02:13:39.663Z,0.00
2022-12-31T02:14:39.644Z,0.00
2022-12-31T02:15:39.665Z,0.00
2022-12-31T02:16:39.622Z,0.00
2022-12-31T02:17:39.621Z,0.00
2022-12-31T02:18:39.620Z,0.00
2022-12-31T02:19:39.632Z,0.00
2022-12-31T02:20:39.611Z,0.00
2022-12-31T02:21:39.614Z,0.00
2022-12-31T02:22:39.608Z,0.00
2022-12-31T02:23:39.597Z,0.00
2022-12-31T02:24:39.591Z,0.00
2022-12-31T02:25:39.608Z,0.00
2022-12-31T02:26:39.606Z,0.00
2022-12-31T02:27:39.580Z,0.00
2022-12-31T02:28:39.572Z,0.00
2022-12-31T02:29:39.560Z,0.00
2022-12-31T02:30:39.561Z,0.00
2022-12-31T02:31:39.602Z,0.00
2022-12-31T02:32:39.552Z,0.00
2022-12-31T02:33:39.534Z,0.00
2022-12-31T02:34:39.538Z,0.00
2022-12-31T02:35:39.532Z,0.00
2022-12-31T02:36:39.521Z,0.00
2022-12-31T02:37:39.523Z,0.00
2022-12-31T02:38:39.518Z,0.00
2022-12-31T02:39:39.527Z,0.00
2022-12-31T02:40:39.511Z,0.00
2022-12-31T02:41:39.512Z,0.00
2022-12-31T02:42:39.505Z,0.00
2022-12-31T02:43:39.491Z,0.00
2022-12-31T02:44:39.505Z,0.00
2022-12-31T02:45:39.485Z,0.00
2022-12-31T02:46:39.497Z,0.00
2022-12-31T02:47:39.479Z,0.00
2022-12-31T02:48:39.468Z,0.00
2022-12-31T02:49:39.466Z,0.00
2022-12-31T02:50:39.457Z,0.00
2022-12-31T02:51:39.455Z,0.00
2022-12-31T02:52:39.456Z,0.00
2022-12-31T02:53:39.447Z,0.00
2022-12-31T02:54:39.444Z,0.00
2022-12-31T02:55:39.438Z,0.00
2022-12-31T02:56:39.426Z,0.00
2022-12-31T02:57:39.441Z,0.00
2022-12-31T02:58:39.430Z,0.00
2022-12-31T02:59:39.424Z,0.00
2022-12-31T03:00:39.440Z,0.00
2022-12-31T03:01:39.573Z,0.00
2022-12-31T03:02:39.443Z,0.00
2022-12-31T03:03:39.401Z,0.00
2022-12-31T03:04:39.388Z,0.00
2022-12-31T03:05:39.388Z,0.00
2022-12-31T03:08:12.919Z,0.00
2022-12-31T03:09:12.948Z,0.00
2022-12-31T03:11:08.004Z,0.00
2022-12-31T03:12:08.016Z,0.00
2022-12-31T03:14:03.133Z,0.00
2022-12-31T03:15:03.111Z,0.00
2022-12-31T03:16:57.313Z,0.00
2022-12-31T03:17:57.312Z,0.00
2022-12-31T03:19:51.460Z,0.00
2022-12-31T03:20:51.435Z,0.00
2022-12-31T03:22:45.663Z,0.00
2022-12-31T03:23:45.652Z,0.00
2022-12-31T03:25:41.008Z,0.00
2022-12-31T03:26:41.007Z,0.00
2022-12-31T03:28:35.270Z,0.00
2022-12-31T03:29:35.258Z,0.00
2022-12-31T03:31:29.580Z,0.00
2022-12-31T03:32:29.476Z,0.00
2022-12-31T03:34:23.598Z,0.00
2022-12-31T03:35:23.576Z,0.00
2022-12-31T03:37:18.355Z,0.00
2022-12-31T03:38:18.339Z,0.00
2022-12-31T03:40:12.436Z,0.00
2022-12-31T03:41:12.415Z,0.00
2022-12-31T03:43:06.501Z,0.00
2022-12-31T03:44:06.461Z,0.00
2022-12-31T03:46:01.661Z,0.00
2022-12-31T03:47:01.514Z,0.00
2022-12-31T03:48:55.616Z,0.00
2022-12-31T03:49:55.585Z,0.00
2022-12-31T03:51:50.690Z,0.00
2022-12-31T03:52:50.678Z,0.00
2022-12-31T03:54:44.907Z,0.00
2022-12-31T03:55:44.927Z,0.00
2022-12-31T03:57:38.994Z,0.00
2022-12-31T03:58:38.996Z,0.00
2022-12-31T04:00:32.791Z,0.00
2022-12-31T04:01:32.920Z,0.00
2022-12-31T04:03:27.918Z,0.00
2022-12-31T04:04:27.903Z,0.00
2022-12-31T04:06:22.013Z,0.00
2022-12-31T04:07:21.989Z,0.00
2022-12-31T04:09:16.078Z,0.00
2022-12-31T04:10:16.080Z,0.00
2022-12-31T04:12:12.181Z,0.00
2022-12-31T04:13:12.173Z,0.00
2022-12-31T04:15:08.374Z,0.00
2022-12-31T04:16:08.345Z,0.00
2022-12-31T04:18:04.483Z,0.00
2022-12-31T04:19:04.480Z,0.00
2022-12-31T04:20:58.607Z,0.00
2022-12-31T04:21:58.582Z,0.00
2022-12-31T04:23:53.690Z,0.00
2022-12-31T04:24:53.687Z,0.00
2022-12-31T04:26:47.867Z,0.00
2022-12-31T04:27:47.883Z,0.00
2022-12-31T04:29:42.045Z,0.00
2022-12-31T04:30:42.014Z,0.00
2022-12-31T04:32:36.133Z,0.00
2022-12-31T04:33:36.102Z,0.00
2022-12-31T04:35:30.231Z,0.00
2022-12-31T04:36:30.208Z,0.00
2022-12-31T04:38:24.430Z,0.00
2022-12-31T04:39:24.430Z,0.00
2022-12-31T04:41:18.634Z,0.00
2022-12-31T04:42:18.585Z,0.00
2022-12-31T04:44:12.809Z,0.00
2022-12-31T04:45:12.774Z,0.00
2022-12-31T04:47:06.860Z,0.00
2022-12-31T04:48:06.835Z,0.00
2022-12-31T04:50:00.963Z,0.00
2022-12-31T04:51:00.921Z,0.00
2022-12-31T04:52:56.127Z,0.00
2022-12-31T04:53:56.142Z,0.00
2022-12-31T04:55:50.490Z,0.00
2022-12-31T04:56:50.478Z,0.00
2022-12-31T04:58:45.610Z,0.00
2022-12-31T04:59:45.570Z,0.00
2022-12-31T05:01:39.800Z,0.00
2022-12-31T05:02:39.892Z,0.00
2022-12-31T05:04:33.874Z,0.00
2022-12-31T05:05:33.835Z,0.00
2022-12-31T05:07:28.927Z,0.00
2022-12-31T05:08:28.919Z,0.00
2022-12-31T05:10:24.089Z,0.00
2022-12-31T05:11:24.034Z,0.00
2022-12-31T05:13:19.188Z,0.00
2022-12-31T05:14:19.242Z,0.00
2022-12-31T05:16:14.448Z,0.00
2022-12-31T05:17:14.315Z,0.00
2022-12-31T05:19:08.465Z,0.00
2022-12-31T05:20:08.464Z,0.00
2022-12-31T05:22:02.527Z,0.00
2022-12-31T05:23:02.529Z,0.00
2022-12-31T05:24:56.724Z,0.00
2022-12-31T05:25:56.699Z,0.00
2022-12-31T05:27:50.890Z,0.00
2022-12-31T05:28:50.879Z,0.00
2022-12-31T05:30:47.013Z,0.00
2022-12-31T05:31:46.955Z,0.00
2022-12-31T05:33:41.087Z,0.00
2022-12-31T05:34:41.073Z,0.00
2022-12-31T05:36:35.145Z,0.00
2022-12-31T05:37:35.143Z,0.00
2022-12-31T05:39:29.293Z,0.00
2022-12-31T05:40:29.236Z,0.00
2022-12-31T05:42:23.354Z,0.00
2022-12-31T05:43:23.338Z,0.00
2022-12-31T05:45:17.393Z,0.00
2022-12-31T05:46:17.419Z,0.00
2022-12-31T05:48:11.576Z,0.00
2022-12-31T05:49:11.575Z,0.00
2022-12-31T05:51:05.958Z,0.00
2022-12-31T05:52:05.969Z,0.00
2022-12-31T05:54:02.151Z,0.00
2022-12-31T05:55:02.131Z,0.00
2022-12-31T05:56:56.416Z,0.00
2022-12-31T05:57:56.384Z,0.00
2022-12-31T05:59:50.525Z,0.00
2022-12-31T06:00:50.492Z,0.00
2022-12-31T06:02:46.645Z,0.00
2022-12-31T06:03:46.700Z,0.00
2022-12-31T06:05:42.729Z,0.00
2022-12-31T06:06:42.704Z,0.00
2022-12-31T06:08:36.869Z,0.00
2022-12-31T06:09:36.848Z,0.00
2022-12-31T06:11:31.047Z,0.00
2022-12-31T06:12:31.003Z,0.00
2022-12-31T06:14:25.225Z,0.00
2022-12-31T06:15:25.209Z,0.00
2022-12-31T06:17:19.483Z,0.00
2022-12-31T06:18:19.466Z,0.00
2022-12-31T06:20:13.629Z,0.00
2022-12-31T06:21:13.582Z,0.00
2022-12-31T06:23:07.866Z,0.00
2022-12-31T06:24:07.853Z,0.00
2022-12-31T06:26:02.195Z,0.00
2022-12-31T06:27:02.181Z,0.00
2022-12-31T06:28:56.379Z,0.00
2022-12-31T06:29:56.351Z,0.00
2022-12-31T06:31:51.504Z,0.00
2022-12-31T06:32:51.484Z,0.00
2022-12-31T06:34:45.674Z,0.00
2022-12-31T06:35:45.652Z,0.00
2022-12-31T06:37:39.815Z,0.00
2022-12-31T06:38:39.797Z,0.00
2022-12-31T06:40:33.987Z,0.00
2022-12-31T06:41:33.971Z,0.00
2022-12-31T06:43:27.754Z,0.00
2022-12-31T06:44:27.737Z,0.00
2022-12-31T06:46:21.903Z,0.00
2022-12-31T06:47:21.855Z,0.00
2022-12-31T06:49:16.723Z,0.00
2022-12-31T06:50:16.652Z,0.00
2022-12-31T06:51:17.533Z,0.00
2022-12-31T06:52:16.641Z,0.00
2022-12-31T06:53:16.642Z,0.00
2022-12-31T06:54:16.632Z,0.00
2022-12-31T06:55:16.638Z,0.00
2022-12-31T06:56:16.635Z,0.00
2022-12-31T06:57:16.615Z,0.00
2022-12-31T06:58:16.638Z,0.00
2022-12-31T06:59:16.611Z,0.00
2022-12-31T07:00:16.604Z,0.00
2022-12-31T07:01:16.701Z,0.00
2022-12-31T07:02:16.664Z,0.00
2022-12-31T07:03:16.633Z,0.00
2022-12-31T07:04:16.587Z,0.00
2022-12-31T07:05:16.582Z,0.00
2022-12-31T07:06:16.579Z,0.00
2022-12-31T07:07:16.574Z,0.00
2022-12-31T07:08:16.582Z,0.00
2022-12-31T07:09:16.565Z,0.00
2022-12-31T07:10:16.553Z,0.00
2022-12-31T07:11:16.552Z,0.00
2022-12-31T07:12:16.548Z,0.00
2022-12-31T07:13:16.652Z,0.00
2022-12-31T07:14:16.545Z,0.00
2022-12-31T07:15:16.547Z,0.00
2022-12-31T07:16:16.662Z,0.00
2022-12-31T07:17:16.529Z,0.00
2022-12-31T07:18:16.527Z,0.00
2022-12-31T07:19:16.517Z,0.00
2022-12-31T07:20:16.535Z,0.00
2022-12-31T07:21:16.541Z,0.00
2022-12-31T07:22:16.511Z,0.00
2022-12-31T07:23:16.519Z,0.00
2022-12-31T07:24:16.504Z,0.00
2022-12-31T07:25:16.496Z,0.00
2022-12-31T07:26:16.489Z,0.00
2022-12-31T07:27:16.488Z,0.00
2022-12-31T07:28:16.483Z,0.00
2022-12-31T07:29:16.481Z,0.00
2022-12-31T07:30:16.470Z,0.00
2022-12-31T07:31:16.509Z,0.00
2022-12-31T07:32:16.479Z,0.00
2022-12-31T07:33:16.495Z,0.00
2022-12-31T07:34:16.455Z,0.00
2022-12-31T07:35:16.456Z,0.00
2022-12-31T07:36:16.447Z,0.00
2022-12-31T07:37:16.456Z,0.00
2022-12-31T07:38:16.457Z,0.00
2022-12-31T07:39:16.449Z,0.00
2022-12-31T07:40:16.434Z,0.00
2022-12-31T07:41:16.466Z,0.00
2022-12-31T07:42:16.461Z,0.00
2022-12-31T07:43:16.433Z,0.00
2022-12-31T07:44:16.410Z,0.00
2022-12-31T07:45:16.459Z,0.00
2022-12-31T07:46:16.452Z,0.00
2022-12-31T07:47:16.397Z,0.00
2022-12-31T07:48:16.411Z,0.00
2022-12-31T07:49:16.402Z,0.00
2022-12-31T07:50:16.413Z,0.00
2022-12-31T07:51:16.374Z,0.00
2022-12-31T07:52:16.384Z,0.00
2022-12-31T07:53:16.388Z,0.00
2022-12-31T07:54:16.374Z,0.00
2022-12-31T07:55:16.381Z,0.00
2022-12-31T07:56:16.362Z,0.00
2022-12-31T07:57:16.366Z,0.00
2022-12-31T07:58:16.358Z,0.00
2022-12-31T07:59:20.954Z,0.00
2022-12-31T08:00:16.343Z,0.00
2022-12-31T08:01:16.396Z,0.00
2022-12-31T08:02:16.446Z,0.00
2022-12-31T08:03:16.332Z,0.00
2022-12-31T08:04:16.323Z,0.00
2022-12-31T08:05:16.347Z,0.00
2022-12-31T08:06:16.317Z,0.00
2022-12-31T08:07:16.311Z,0.00
2022-12-31T08:08:16.310Z,0.00
2022-12-31T08:09:16.301Z,0.00
2022-12-31T08:10:18.304Z,0.00
2022-12-31T08:11:16.306Z,0.00
2022-12-31T08:12:16.288Z,0.00
2022-12-31T08:13:16.289Z,0.00
2022-12-31T08:14:16.278Z,0.00
2022-12-31T08:15:16.287Z,0.00
2022-12-31T08:16:16.306Z,0.00
2022-12-31T08:17:16.271Z,0.00
2022-12-31T08:18:16.263Z,0.00
2022-12-31T08:19:16.264Z,0.00
2022-12-31T08:20:16.262Z,0.00
2022-12-31T08:21:16.250Z,0.00
2022-12-31T08:22:16.239Z,0.00
2022-12-31T08:23:16.850Z,0.00
2022-12-31T08:24:16.249Z,0.00
2022-12-31T08:25:16.230Z,0.00
2022-12-31T08:26:16.277Z,0.00
2022-12-31T08:27:16.224Z,0.00
2022-12-31T08:28:16.226Z,0.00
2022-12-31T08:29:16.216Z,0.00
2022-12-31T08:30:16.235Z,0.00
2022-12-31T08:31:16.285Z,0.00
2022-12-31T08:32:16.216Z,0.00
2022-12-31T08:33:16.224Z,0.00
2022-12-31T08:34:16.195Z,0.00
2022-12-31T08:35:16.216Z,0.00
2022-12-31T08:36:16.195Z,0.00
2022-12-31T08:37:16.182Z,0.00
2022-12-31T08:38:16.177Z,0.00
2022-12-31T08:39:16.165Z,5.63
2022-12-31T08:40:16.179Z,0.00
2022-12-31T08:41:16.174Z,0.00
2022-12-31T08:42:16.178Z,0.00
2022-12-31T08:43:16.158Z,0.00
2022-12-31T08:44:16.149Z,0.00
2022-12-31T08:45:16.164Z,0.00
2022-12-31T08:46:16.164Z,0.00
2022-12-31T08:47:16.146Z,0.00
2022-12-31T08:48:16.139Z,0.00
2022-12-31T08:49:16.159Z,0.00
2022-12-31T08:50:16.147Z,0.00
2022-12-31T08:51:16.116Z,0.00
2022-12-31T08:52:16.117Z,0.00
2022-12-31T08:53:16.129Z,0.00
2022-12-31T08:54:16.126Z,0.00
2022-12-31T08:55:16.111Z,0.00
2022-12-31T08:56:16.128Z,0.00
2022-12-31T08:57:16.107Z,0.00
2022-12-31T08:58:16.119Z,0.00
2022-12-31T08:59:16.115Z,0.00
2022-12-31T09:00:16.111Z,0.00
2022-12-31T09:01:16.163Z,5.63
2022-12-31T09:02:16.151Z,5.63
2022-12-31T09:03:16.066Z,5.63
2022-12-31T09:04:16.143Z,5.63
2022-12-31T09:05:16.059Z,11.25
2022-12-31T09:06:16.085Z,5.63
2022-12-31T09:07:16.057Z,5.63
2022-12-31T09:08:16.065Z,5.63
2022-12-31T09:09:16.047Z,5.63
2022-12-31T09:10:16.064Z,5.63
2022-12-31T09:11:22.653Z,5.63
2022-12-31T09:12:16.044Z,5.63
2022-12-31T09:13:16.030Z,5.63
2022-12-31T09:14:16.022Z,5.63
2022-12-31T09:15:16.028Z,11.25
2022-12-31T09:16:16.070Z,11.25
2022-12-31T09:17:16.028Z,11.25
2022-12-31T09:18:16.027Z,11.25
2022-12-31T09:19:16.019Z,11.25
2022-12-31T09:20:16.024Z,11.25
2022-12-31T09:21:16.055Z,11.25
2022-12-31T09:22:16.024Z,11.25
2022-12-31T09:23:15.988Z,11.25
2022-12-31T09:24:16.077Z,11.25
2022-12-31T09:25:15.993Z,11.25
2022-12-31T09:26:15.998Z,5.63
2022-12-31T09:27:15.991Z,5.63
2022-12-31T09:28:15.990Z,11.25
2022-12-31T09:29:15.970Z,11.25
2022-12-31T09:30:15.952Z,11.25
2022-12-31T09:31:16.043Z,16.88
2022-12-31T09:32:15.974Z,11.25
2022-12-31T09:33:15.945Z,11.25
2022-12-31T09:34:15.936Z,16.88
2022-12-31T09:35:15.934Z,16.88
2022-12-31T09:36:15.948Z,16.88
2022-12-31T09:37:15.922Z,16.88
2022-12-31T09:38:15.929Z,16.88
2022-12-31T09:39:15.912Z,16.88
2022-12-31T09:40:15.923Z,22.50
2022-12-31T09:41:15.938Z,22.50
2022-12-31T09:42:15.906Z,22.50
2022-12-31T09:43:15.913Z,16.88
2022-12-31T09:44:15.897Z,16.88
2022-12-31T09:45:15.895Z,22.50
2022-12-31T09:46:15.936Z,16.88
2022-12-31T09:47:15.889Z,16.88
2022-12-31T09:48:15.892Z,16.88
2022-12-31T09:49:15.892Z,16.88
2022-12-31T09:50:15.871Z,11.25
2022-12-31T09:51:19.179Z,11.25
2022-12-31T09:52:15.871Z,11.25
2022-12-31T09:53:15.872Z,11.25
2022-12-31T09:54:15.863Z,11.25
2022-12-31T09:55:15.877Z,11.25
2022-12-31T09:56:15.846Z,11.25
2022-12-31T09:57:15.841Z,11.25
2022-12-31T09:58:15.863Z,11.25
2022-12-31T09:59:16.509Z,11.25
2022-12-31T10:00:15.844Z,11.25
2022-12-31T10:01:15.913Z,11.25
2022-12-31T10:02:15.987Z,11.25
2022-12-31T10:03:15.920Z,11.25
2022-12-31T10:04:15.821Z,11.25
2022-12-31T10:05:15.811Z,11.25
2022-12-31T10:06:15.816Z,11.25
2022-12-31T10:07:15.808Z,11.25
2022-12-31T10:08:15.803Z,11.25
2022-12-31T10:09:15.793Z,11.25
2022-12-31T10:10:15.794Z,11.25
2022-12-31T10:11:15.794Z,11.25
2022-12-31T10:12:15.784Z,11.25
2022-12-31T10:13:15.781Z,11.25
2022-12-31T10:14:15.777Z,11.25
2022-12-31T10:15:15.774Z,11.25
2022-12-31T10:16:15.817Z,11.25
2022-12-31T10:17:15.764Z,11.25
2022-12-31T10:18:15.764Z,5.63
2022-12-31T10:19:15.752Z,5.63
2022-12-31T10:20:15.765Z,11.25
2022-12-31T10:21:15.751Z,11.25
2022-12-31T10:22:15.734Z,11.25
2022-12-31T10:23:15.739Z,11.25
2022-12-31T10:24:15.741Z,11.25
2022-12-31T10:25:15.739Z,11.25
2022-12-31T10:26:15.739Z,11.25
2022-12-31T10:27:15.729Z,11.25
2022-12-31T10:28:15.727Z,11.25
2022-12-31T10:29:15.714Z,11.25
2022-12-31T10:30:15.722Z,11.25
2022-12-31T10:31:15.745Z,11.25
2022-12-31T10:32:15.719Z,5.63
2022-12-31T10:33:15.727Z,5.63
2022-12-31T10:34:15.706Z,11.25
2022-12-31T10:35:15.695Z,11.25
2022-12-31T10:36:15.697Z,11.25
2022-12-31T10:37:15.702Z,11.25
2022-12-31T10:38:15.698Z,11.25
2022-12-31T10:39:20.558Z,11.25
2022-12-31T10:40:15.687Z,11.25
2022-12-31T10:41:15.670Z,11.25
2022-12-31T10:42:15.692Z,11.25
2022-12-31T10:43:15.668Z,5.63
2022-12-31T10:44:15.665Z,11.25
2022-12-31T10:45:15.661Z,11.25
2022-12-31T10:46:22.454Z,11.25
2022-12-31T10:47:15.636Z,11.25
2022-12-31T10:48:15.637Z,11.25
2022-12-31T10:49:15.649Z,11.25
2022-12-31T10:50:15.651Z,11.25
2022-12-31T10:51:15.639Z,11.25
2022-12-31T10:52:15.643Z,5.63
2022-12-31T10:53:15.645Z,5.63
2022-12-31T10:54:15.640Z,5.63
2022-12-31T10:55:15.618Z,5.63
2022-12-31T10:56:15.624Z,5.63
2022-12-31T10:57:15.606Z,11.25
2022-12-31T10:58:15.609Z,5.63
2022-12-31T10:59:36.621Z,5.63
2022-12-31T11:00:15.597Z,5.63
2022-12-31T11:01:15.644Z,5.63
2022-12-31T11:02:15.797Z,5.63
2022-12-31T11:03:15.609Z,5.63
2022-12-31T11:04:15.738Z,11.25
2022-12-31T11:05:15.575Z,5.63
2022-12-31T11:06:15.577Z,5.63
2022-12-31T11:07:15.573Z,11.25
2022-12-31T11:08:15.570Z,16.88
2022-12-31T11:09:15.714Z,11.25
2022-12-31T11:10:15.620Z,11.25
2022-12-31T11:11:15.552Z,11.25
2022-12-31T11:12:15.554Z,11.25
2022-12-31T11:13:15.556Z,11.25
2022-12-31T11:14:15.694Z,11.25
2022-12-31T11:15:15.536Z,11.25
2022-12-31T11:16:15.584Z,11.25
2022-12-31T11:17:15.534Z,11.25
2022-12-31T11:18:15.532Z,11.25
2022-12-31T11:19:15.621Z,11.25
2022-12-31T11:20:15.550Z,16.88
2022-12-31T11:21:15.520Z,16.88
2022-12-31T11:22:15.524Z,22.50
2022-12-31T11:23:15.506Z,22.50
2022-12-31T11:24:15.500Z,16.88
2022-12-31T11:25:15.502Z,11.25
2022-12-31T11:26:15.501Z,11.25
2022-12-31T11:27:15.497Z,11.25
2022-12-31T11:28:15.495Z,16.88
2022-12-31T11:29:15.495Z,11.25
2022-12-31T11:30:15.507Z,11.25
2022-12-31T11:31:15.557Z,11.25
2022-12-31T11:32:15.478Z,5.63
2022-12-31T11:33:15.465Z,11.25
2022-12-31T11:34:15.463Z,11.25
2022-12-31T11:35:15.463Z,11.25
2022-12-31T11:36:15.463Z,5.63
2022-12-31T11:37:15.460Z,11.25
2022-12-31T11:38:15.449Z,11.25
2022-12-31T11:39:15.452Z,11.25
2022-12-31T11:40:15.440Z,11.25
2022-12-31T11:41:15.439Z,11.25
2022-12-31T11:42:15.436Z,11.25
2022-12-31T11:43:15.434Z,11.25
2022-12-31T11:44:15.429Z,11.25
2022-12-31T11:45:15.424Z,11.25
2022-12-31T11:46:15.444Z,11.25
2022-12-31T11:47:15.430Z,11.25
2022-12-31T11:48:31.918Z,11.25
2022-12-31T11:49:15.408Z,11.25
2022-12-31T11:50:15.404Z,11.25
2022-12-31T11:51:15.398Z,11.25
2022-12-31T11:52:21.041Z,11.25
2022-12-31T11:53:15.393Z,11.25
2022-12-31T11:54:15.391Z,11.25
2022-12-31T11:55:15.389Z,11.25
2022-12-31T11:56:15.385Z,11.25
2022-12-31T11:57:15.378Z,11.25
2022-12-31T11:58:15.382Z,11.25
2022-12-31T11:59:19.284Z,11.25
2022-12-31T12:00:15.379Z,11.25
2022-12-31T12:01:15.392Z,11.25
2022-12-31T12:02:15.361Z,11.25
2022-12-31T12:03:15.387Z,11.25
2022-12-31T12:04:15.381Z,11.25
2022-12-31T12:05:15.345Z,11.25
2022-12-31T12:06:15.354Z,11.25
2022-12-31T12:07:15.339Z,11.25
2022-12-31T12:08:15.342Z,11.25
2022-12-31T12:09:15.335Z,11.25
2022-12-31T12:10:15.337Z,11.25
2022-12-31T12:11:15.324Z,11.25
2022-12-31T12:12:15.320Z,11.25
2022-12-31T12:13:15.329Z,11.25
2022-12-31T12:14:15.320Z,11.25
2022-12-31T12:15:15.307Z,11.25
2022-12-31T12:16:15.330Z,11.25
2022-12-31T12:17:15.305Z,11.25
2022-12-31T12:18:15.300Z,11.25
2022-12-31T12:19:15.295Z,11.25
2022-12-31T12:20:15.296Z,11.25
2022-12-31T12:21:15.299Z,11.25
2022-12-31T12:22:15.287Z,11.25
2022-12-31T12:23:15.274Z,11.25
2022-12-31T12:24:15.288Z,11.25
2022-12-31T12:25:15.274Z,16.88
2022-12-31T12:26:15.280Z,16.88
2022-12-31T12:27:15.265Z,16.88
2022-12-31T12:28:15.262Z,16.88
2022-12-31T12:29:15.279Z,16.88
2022-12-31T12:30:15.268Z,16.88
2022-12-31T12:31:15.288Z,16.88
2022-12-31T12:32:15.249Z,11.25
2022-12-31T12:33:15.241Z,11.25
2022-12-31T12:34:15.238Z,11.25
2022-12-31T12:35:15.228Z,11.25
2022-12-31T12:36:15.225Z,11.25
2022-12-31T12:37:15.232Z,11.25
2022-12-31T12:38:15.248Z,11.25
2022-12-31T12:39:15.218Z,16.88
2022-12-31T12:40:15.209Z,16.88
2022-12-31T12:41:15.204Z,16.88
2022-12-31T12:42:15.207Z,22.50
2022-12-31T12:43:15.227Z,28.13
2022-12-31T12:44:15.200Z,28.13
2022-12-31T12:45:15.196Z,22.50
2022-12-31T12:46:15.227Z,22.50
2022-12-31T12:47:15.267Z,33.75
2022-12-31T12:48:15.188Z,45.00
2022-12-31T12:49:15.186Z,33.75
2022-12-31T12:50:15.206Z,33.75
2022-12-31T12:51:15.185Z,22.50
2022-12-31T12:52:15.177Z,16.88
2022-12-31T12:53:15.176Z,16.88
2022-12-31T12:54:15.158Z,16.88
2022-12-31T12:55:15.157Z,11.25
2022-12-31T12:56:15.162Z,11.25
2022-12-31T12:57:15.152Z,16.88
2022-12-31T12:58:19.199Z,16.88
2022-12-31T12:59:15.136Z,16.88
2022-12-31T13:00:15.148Z,16.88
2022-12-31T13:01:15.255Z,11.25
2022-12-31T13:02:15.292Z,11.25
2022-12-31T13:03:15.131Z,11.25
2022-12-31T13:05:15.122Z,11.25
2022-12-31T13:06:15.126Z,11.25
2022-12-31T13:07:15.121Z,11.25
2022-12-31T13:08:15.116Z,11.25
2022-12-31T13:09:15.106Z,11.25
2022-12-31T13:10:15.105Z,11.25
2022-12-31T13:11:15.098Z,16.88
2022-12-31T13:12:15.097Z,16.88
2022-12-31T13:13:24.369Z,22.50
2022-12-31T13:14:15.115Z,22.50
2022-12-31T13:15:15.083Z,22.50
2022-12-31T13:16:15.116Z,22.50
2022-12-31T13:17:15.077Z,16.88
2022-12-31T13:18:15.079Z,16.88
2022-12-31T13:19:15.082Z,16.88
2022-12-31T13:20:15.096Z,22.50
2022-12-31T13:21:15.060Z,22.50
2022-12-31T13:22:15.064Z,22.50
2022-12-31T13:23:15.067Z,16.88
2022-12-31T13:24:15.061Z,16.88
2022-12-31T13:25:15.051Z,16.88
2022-12-31T13:26:15.049Z,16.88
2022-12-31T13:27:15.038Z,16.88
2022-12-31T13:28:15.044Z,11.25
2022-12-31T13:29:15.041Z,16.88
2022-12-31T13:30:15.030Z,22.50
2022-12-31T13:31:15.068Z,16.88
2022-12-31T13:32:15.019Z,11.25
2022-12-31T13:33:15.022Z,5.63
2022-12-31T13:34:15.021Z,5.63
2022-12-31T13:35:15.026Z,5.63
2022-12-31T13:36:15.014Z,11.25
2022-12-31T13:37:15.010Z,11.25
2022-12-31T13:38:15.012Z,11.25
2022-12-31T13:39:15.010Z,11.25
2022-12-31T13:40:14.997Z,11.25
2022-12-31T13:41:14.996Z,11.25
2022-12-31T13:42:14.991Z,11.25
2022-12-31T13:43:14.990Z,11.25
2022-12-31T13:44:14.986Z,11.25
2022-12-31T13:45:14.980Z,11.25
2022-12-31T13:46:15.008Z,11.25
2022-12-31T13:47:14.974Z,11.25
2022-12-31T13:48:14.975Z,5.63
2022-12-31T13:49:14.965Z,5.63
2022-12-31T13:50:15.218Z,11.25
2022-12-31T13:51:14.966Z,11.25
2022-12-31T13:52:14.963Z,11.25
2022-12-31T13:53:14.944Z,11.25
2022-12-31T13:54:14.952Z,11.25
2022-12-31T13:55:14.949Z,16.88
2022-12-31T13:56:14.941Z,16.88
2022-12-31T13:57:14.936Z,11.25
2022-12-31T13:58:14.934Z,11.25
2022-12-31T13:59:14.938Z,16.88
2022-12-31T14:00:14.925Z,16.88
2022-12-31T14:01:15.018Z,11.25
2022-12-31T14:02:15.175Z,11.25
2022-12-31T14:03:14.947Z,11.25
2022-12-31T14:04:14.911Z,11.25
2022-12-31T14:05:14.900Z,5.63
2022-12-31T14:06:14.913Z,5.63
2022-12-31T14:07:14.909Z,5.63
2022-12-31T14:08:14.901Z,5.63
2022-12-31T14:09:14.906Z,5.63
2022-12-31T14:10:14.884Z,5.63
2022-12-31T14:11:14.898Z,11.25
2022-12-31T14:12:14.909Z,11.25
2022-12-31T14:13:14.881Z,11.25
2022-12-31T14:14:14.879Z,5.63
2022-12-31T14:15:14.880Z,5.63
2022-12-31T14:16:14.910Z,5.63
2022-12-31T14:17:14.862Z,5.63
2022-12-31T14:18:14.904Z,5.63
2022-12-31T14:19:14.851Z,5.63
2022-12-31T14:20:14.870Z,5.63
2022-12-31T14:21:14.856Z,5.63